Argonia, Kansas
Current Conditions -  °F | °C
As of 2:53 AM on Friday 31 Oct 2014 (Local Time) from KICT Reporting Station
Scattered Clouds Scattered Clouds  
Wind Chill: 39°   Ceiling: Unl
Heat Index: 46°   Visibility: 10mi
Dew Point: 37°   Wind: 17mph
Humidity: 71%   Direction: 360°N
Pressure: 30.34"   Gusts: 29mph
Location:  37.27°N, 97.77°W
Report Text: KICT 310753Z 36015G25KT 10SM SCT020 08/03 A3034 RMK AO2 PK WND 01026/0716 SLP270 T00780028
Loading
Personal Weather Stations






























Interactive Weather Map New forecast layout! Learn more

10-Day Weather Forecast

Advertisements
Track Severe Weather on mobile